createdAt,value
2023-01-19T00:01:39.618Z,24.90
2023-01-19T00:04:07.092Z,29.60
2023-01-19T00:06:35.098Z,26.90
2023-01-19T00:09:03.022Z,22.30
2023-01-19T00:11:31.320Z,24.00
2023-01-19T00:13:59.011Z,30.50
2023-01-19T00:16:26.664Z,23.60
2023-01-19T00:18:55.257Z,26.90
2023-01-19T00:21:22.741Z,24.50
2023-01-19T00:23:52.942Z,19.80
2023-01-19T00:26:21.900Z,19.90
2023-01-19T00:28:50.103Z,17.20
2023-01-19T00:31:20.142Z,17.20
2023-01-19T00:33:48.977Z,23.40
2023-01-19T00:36:16.471Z,25.60
2023-01-19T00:38:46.167Z,22.80
2023-01-19T00:41:14.557Z,24.60
2023-01-19T00:43:42.167Z,45.40
2023-01-19T00:46:09.590Z,43.50
2023-01-19T00:48:37.150Z,37.00
2023-01-19T00:51:05.041Z,24.30
2023-01-19T00:53:34.594Z,21.90
2023-01-19T00:56:02.265Z,21.70
2023-01-19T00:58:30.020Z,25.70
2023-01-19T01:01:03.146Z,23.40
2023-01-19T01:03:31.793Z,25.10
2023-01-19T01:05:59.507Z,27.10
2023-01-19T01:08:27.194Z,22.10
2023-01-19T01:10:55.320Z,20.70
2023-01-19T01:13:26.159Z,21.60
2023-01-19T01:15:55.130Z,17.60
2023-01-19T01:18:23.533Z,14.90
2023-01-19T01:20:51.042Z,18.90
2023-01-19T01:23:23.027Z,24.30
2023-01-19T01:25:50.802Z,29.00
2023-01-19T01:28:18.720Z,27.20
2023-01-19T01:30:46.210Z,26.40
2023-01-19T01:33:14.428Z,27.30
2023-01-19T01:35:41.911Z,19.30
2023-01-19T01:38:09.594Z,17.70
2023-01-19T01:40:40.578Z,17.30
2023-01-19T01:43:20.399Z,15.90
2023-01-19T01:45:47.835Z,20.20
2023-01-19T01:48:23.582Z,20.30
2023-01-19T01:51:14.003Z,21.40
2023-01-19T01:53:41.977Z,15.50
2023-01-19T01:56:11.653Z,24.00
2023-01-19T01:58:39.954Z,26.50
2023-01-19T02:01:26.061Z,25.20
2023-01-19T02:03:57.738Z,26.70
2023-01-19T02:06:25.665Z,26.80
2023-01-19T02:09:21.569Z,27.10
2023-01-19T02:12:07.596Z,23.90
2023-01-19T02:14:37.080Z,30.40
2023-01-19T02:17:05.422Z,30.20
2023-01-19T02:19:40.704Z,25.50
2023-01-19T02:22:20.065Z,24.80
2023-01-19T02:24:49.598Z,25.60
2023-01-19T02:27:17.181Z,28.20
2023-01-19T02:29:44.862Z,24.80
2023-01-19T02:32:13.806Z,25.40
2023-01-19T02:34:41.278Z,22.60
2023-01-19T02:37:13.132Z,24.50
2023-01-19T02:39:54.396Z,28.40
2023-01-19T02:42:34.733Z,25.50
2023-01-19T02:45:06.818Z,22.90
2023-01-19T02:50:06.545Z,26.70
2023-01-19T02:52:34.543Z,21.80
2023-01-19T02:55:11.493Z,29.10
2023-01-19T02:57:57.454Z,22.80
2023-01-19T03:00:43.170Z,25.10
2023-01-19T03:03:35.337Z,18.40
2023-01-19T03:06:09.790Z,19.30
2023-01-19T03:08:38.579Z,19.10
2023-01-19T03:11:11.131Z,20.80
2023-01-19T03:13:57.536Z,16.70
2023-01-19T03:16:51.006Z,15.60
2023-01-19T03:19:39.349Z,16.50
2023-01-19T03:22:17.309Z,14.50
2023-01-19T03:24:46.059Z,13.10
2023-01-19T03:27:19.804Z,15.50
2023-01-19T03:29:50.713Z,13.00
2023-01-19T03:32:19.628Z,11.20
2023-01-19T03:34:47.078Z,14.70
2023-01-19T03:37:15.231Z,10.30
2023-01-19T03:39:42.736Z,13.50
2023-01-19T03:42:14.271Z,13.70
2023-01-19T07:41:55.386Z,21.40
2023-01-19T07:44:27.742Z,20.90
2023-01-19T07:46:55.443Z,21.60
2023-01-19T07:49:23.180Z,23.30
2023-01-19T07:51:50.477Z,25.00
2023-01-19T07:54:18.202Z,25.00
2023-01-19T07:56:45.743Z,26.20
2023-01-19T07:59:13.177Z,24.00
2023-01-19T08:01:40.875Z,28.30
2023-01-19T08:04:10.293Z,24.10
2023-01-19T08:06:38.376Z,25.10
2023-01-19T08:09:06.679Z,21.70
2023-01-19T08:11:34.138Z,19.40
2023-01-19T08:14:02.255Z,20.00
2023-01-19T08:16:29.714Z,19.20
2023-01-19T08:18:56.980Z,19.30
2023-01-19T08:21:24.429Z,16.10
2023-01-19T08:23:55.479Z,17.00
2023-01-19T08:26:31.308Z,17.40
2023-01-19T08:29:00.402Z,13.80
2023-01-19T08:31:29.984Z,16.70
2023-01-19T08:33:57.962Z,16.10
2023-01-19T08:36:25.416Z,14.60
2023-01-19T08:38:52.789Z,11.70
2023-01-19T08:41:20.261Z,14.10
2023-01-19T08:43:48.894Z,15.60
2023-01-19T08:46:21.540Z,15.30
2023-01-19T08:48:49.973Z,22.90
2023-01-19T08:51:18.019Z,29.00
2023-01-19T08:53:46.514Z,27.60
2023-01-19T08:56:14.085Z,26.80
2023-01-19T08:58:42.866Z,24.10
2023-01-19T09:01:14.408Z,30.70
2023-01-19T09:03:42.661Z,25.20
2023-01-19T09:06:11.808Z,26.30
2023-01-19T09:08:39.192Z,24.50
2023-01-19T09:11:10.992Z,24.60
2023-01-19T09:13:39.223Z,23.40
2023-01-19T09:16:09.207Z,27.00
2023-01-19T09:18:37.195Z,25.30
2023-01-19T09:21:05.215Z,24.40
2023-01-19T09:23:35.152Z,26.60
2023-01-19T09:26:03.753Z,21.90
2023-01-19T09:28:31.351Z,22.90
2023-01-19T09:30:59.131Z,26.50
2023-01-19T09:33:26.543Z,27.90
2023-01-19T09:35:54.309Z,24.10
2023-01-19T09:38:22.962Z,26.30
2023-01-19T09:40:53.436Z,25.80
2023-01-19T09:43:26.443Z,25.00
2023-01-19T09:45:53.803Z,26.70
2023-01-19T09:48:32.405Z,26.90
2023-01-19T09:51:02.737Z,30.30
2023-01-19T09:53:50.186Z,24.30
2023-01-19T09:56:19.992Z,23.80
2023-01-19T09:58:48.534Z,23.90
2023-01-19T10:01:30.452Z,25.50
2023-01-19T10:04:31.089Z,24.40
2023-01-19T10:07:22.247Z,25.00
2023-01-19T10:12:37.729Z,22.00
2023-01-19T10:15:28.610Z,22.20
2023-01-19T10:18:11.773Z,23.80
2023-01-19T10:20:43.754Z,23.90
2023-01-19T10:23:38.659Z,24.00
2023-01-19T10:26:25.862Z,20.90
2023-01-19T10:28:55.718Z,22.10
2023-01-19T10:31:23.907Z,19.30
2023-01-19T10:33:52.353Z,21.60
2023-01-19T10:36:28.850Z,21.30
2023-01-19T10:38:56.224Z,25.50
2023-01-19T10:41:41.383Z,22.70
2023-01-19T10:44:10.496Z,23.30
2023-01-19T10:46:47.832Z,22.00
2023-01-19T10:49:35.394Z,25.20
2023-01-19T10:52:03.229Z,21.40
2023-01-19T10:54:31.338Z,22.60
2023-01-19T10:57:02.461Z,20.90
2023-01-19T10:59:34.948Z,25.00
2023-01-19T11:02:18.296Z,26.00
2023-01-19T11:04:50.108Z,23.30
2023-01-19T11:07:24.003Z,28.90
2023-01-19T11:10:17.118Z,21.50
2023-01-19T11:12:57.026Z,23.10
2023-01-19T11:15:28.559Z,22.90
2023-01-19T11:17:55.929Z,32.90
2023-01-19T11:20:47.534Z,24.90
2023-01-19T11:23:41.763Z,26.30
2023-01-19T11:26:15.415Z,21.60
2023-01-19T11:28:46.054Z,25.60
2023-01-19T11:31:13.456Z,27.10
2023-01-19T11:33:48.401Z,26.00
2023-01-19T11:36:17.160Z,27.40
2023-01-19T11:38:45.546Z,24.60
2023-01-19T11:41:36.178Z,23.50
2023-01-19T11:44:32.720Z,24.60
2023-01-19T11:47:02.311Z,25.80
2023-01-19T11:49:38.133Z,29.20
2023-01-19T11:52:09.957Z,29.30
2023-01-19T11:57:12.362Z,26.60
2023-01-19T11:59:39.869Z,25.70
2023-01-19T12:02:18.744Z,32.30
2023-01-19T12:04:46.417Z,24.40
2023-01-19T12:07:14.059Z,23.60
2023-01-19T12:09:46.006Z,27.80
2023-01-19T12:12:25.828Z,26.20
2023-01-19T12:15:20.819Z,34.80
2023-01-19T12:17:53.194Z,26.60
2023-01-19T12:20:31.059Z,28.20
2023-01-19T12:23:21.600Z,34.20
2023-01-19T12:25:55.330Z,23.40
2023-01-19T12:28:26.461Z,28.60
2023-01-19T12:30:56.095Z,27.20
2023-01-19T12:33:38.783Z,20.80
2023-01-19T12:36:10.606Z,30.40
2023-01-19T12:41:25.157Z,34.80
2023-01-19T12:44:11.357Z,31.60
2023-01-19T12:46:42.399Z,27.10
2023-01-19T12:49:21.771Z,25.90
2023-01-19T12:51:49.775Z,27.10
2023-01-19T12:54:31.171Z,33.30
2023-01-19T12:57:01.268Z,32.00
2023-01-19T12:59:35.983Z,26.40
2023-01-19T13:02:22.859Z,21.70
2023-01-19T13:05:06.384Z,32.00
2023-01-19T13:08:01.538Z,32.90
2023-01-19T13:11:15.329Z,25.50
2023-01-19T13:13:44.255Z,27.20
2023-01-19T13:16:17.959Z,26.30
2023-01-19T13:18:48.194Z,21.00
2023-01-19T13:21:46.500Z,23.60
2023-01-19T13:24:14.894Z,39.00
2023-01-19T16:07:16.895Z,40.30
2023-01-19T16:09:44.644Z,47.00
2023-01-19T16:12:12.344Z,46.50
2023-01-19T16:14:40.039Z,45.60
2023-01-19T16:17:07.541Z,65.70
2023-01-19T16:19:34.932Z,54.20
2023-01-19T16:22:02.948Z,52.60
2023-01-19T16:24:30.532Z,69.70
2023-01-19T16:26:58.105Z,57.30
2023-01-19T16:29:26.009Z,55.30
2023-01-19T16:31:53.602Z,58.00
2023-01-19T16:34:22.328Z,47.90
2023-01-19T16:36:50.126Z,43.30
2023-01-19T16:39:17.807Z,37.50
2023-01-19T16:41:45.609Z,36.40
2023-01-19T16:44:14.085Z,30.20
2023-01-19T16:46:43.807Z,30.90
2023-01-19T16:49:15.047Z,29.00
2023-01-19T16:51:45.592Z,25.90
2023-01-19T16:54:18.012Z,33.20
2023-01-19T16:56:45.516Z,30.50
2023-01-19T16:59:15.596Z,29.00
2023-01-19T17:01:45.767Z,31.10
2023-01-19T17:04:13.851Z,30.00
2023-01-19T17:06:42.361Z,32.20
2023-01-19T17:09:09.970Z,35.70
2023-01-19T17:11:40.010Z,40.80
2023-01-19T17:14:14.026Z,38.40
2023-01-19T17:16:41.592Z,28.90
2023-01-19T17:19:12.684Z,31.30
2023-01-19T17:21:40.208Z,27.60
2023-01-19T17:24:07.599Z,25.80
2023-01-19T17:26:35.010Z,30.60
2023-01-19T17:29:04.988Z,26.90
2023-01-19T17:31:34.189Z,29.70
2023-01-19T17:34:02.047Z,25.80
2023-01-19T17:36:30.956Z,25.90
2023-01-19T17:38:59.672Z,23.90
2023-01-19T17:41:31.578Z,35.50
2023-01-19T17:43:59.578Z,36.30
2023-01-19T17:46:28.172Z,37.30
2023-01-19T17:48:59.934Z,39.40
2023-01-19T17:51:27.507Z,26.20
2023-01-19T17:53:55.307Z,26.20
2023-01-19T17:56:29.877Z,28.40
